Terminal Aerodrome Forecast
Issued by NWS

Home | Current Version | Previous Version | Text Only | Print | Product List | Glossary On
Versions: 1 2 3 4 5 6 7 8 9 10 11 12 13 14 15 16 17 18 19 20 21 22 23 24 25 26 27
364
FTUS41 KOKX 221125
TAFHPN
TAF
KHPN 221125Z 2212/2312 31010KT P6SM FEW060
     FM221400 30012G18KT P6SM SCT060
     FM221700 29015G23KT P6SM BKN060
     FM222200 32017G27KT P6SM BKN060
     FM230100 32014G21KT P6SM SCT060
     FM230400 33011KT P6SM SKC
     FM230900 33008KT P6SM SKC
      AMD NOT SKED=

USA.gov is the U.S. government's official web portal to all federal, state and local government web resources and services.